createdAt,value
2018-09-01T00:00:19.408Z,21.15
2018-09-01T00:01:19.317Z,21.15
2018-09-01T00:02:19.946Z,21.15
2018-09-01T00:03:19.384Z,21.14
2018-09-01T00:04:19.184Z,21.14
2018-09-01T00:05:19.359Z,21.14
2018-09-01T00:06:19.162Z,21.14
2018-09-01T00:07:19.757Z,21.14
2018-09-01T00:08:19.481Z,21.14
2018-09-01T00:09:19.282Z,21.14
2018-09-01T00:10:19.492Z,21.13
2018-09-01T00:11:20.185Z,21.15
2018-09-01T00:12:19.445Z,21.15
2018-09-01T00:13:19.149Z,21.15
2018-09-01T00:14:19.317Z,21.14
2018-09-01T00:15:19.239Z,21.14
2018-09-01T00:16:19.430Z,21.14
2018-09-01T00:17:19.429Z,21.14
2018-09-01T00:18:19.334Z,21.14
2018-09-01T00:19:19.675Z,21.14
2018-09-01T00:20:19.270Z,21.13
2018-09-01T00:21:19.303Z,21.14
2018-09-01T00:22:19.399Z,21.14
2018-09-01T00:23:19.521Z,21.14
2018-09-01T00:24:19.145Z,21.14
2018-09-01T00:25:19.283Z,21.14
2018-09-01T00:26:19.436Z,21.14
2018-09-01T00:27:19.434Z,21.14
2018-09-01T00:28:19.641Z,21.15
2018-09-01T00:29:19.398Z,21.14
2018-09-01T00:30:19.566Z,21.14
2018-09-01T00:31:19.746Z,21.14
2018-09-01T00:32:19.506Z,21.13
2018-09-01T00:33:19.654Z,21.14
2018-09-01T00:34:19.290Z,21.13
2018-09-01T00:35:19.370Z,21.14
2018-09-01T00:36:19.343Z,21.14
2018-09-01T00:37:19.786Z,21.13
2018-09-01T00:38:19.565Z,21.13
2018-09-01T00:39:19.119Z,21.13
2018-09-01T00:40:19.256Z,21.13
2018-09-01T00:41:19.297Z,21.13
2018-09-01T00:42:19.462Z,21.14
2018-09-01T00:43:19.424Z,21.13
2018-09-01T00:44:19.274Z,21.14
2018-09-01T00:45:19.431Z,21.13
2018-09-01T00:46:19.389Z,21.13
2018-09-01T00:47:19.562Z,21.13
2018-09-01T00:48:19.586Z,21.13
2018-09-01T00:49:19.424Z,21.14
2018-09-01T00:50:19.282Z,21.13
2018-09-01T00:51:19.142Z,21.13
2018-09-01T00:52:19.168Z,21.13
2018-09-01T00:53:19.378Z,21.13
2018-09-01T00:54:19.329Z,21.13
2018-09-01T00:55:19.248Z,21.13
2018-09-01T00:56:19.326Z,21.13
2018-09-01T00:57:19.354Z,21.13
2018-09-01T00:58:19.489Z,21.13
2018-09-01T00:59:19.237Z,21.13
2018-09-01T01:00:19.181Z,21.13
2018-09-01T01:01:19.267Z,21.13
2018-09-01T01:02:19.330Z,21.13
2018-09-01T01:03:19.357Z,21.13
2018-09-01T01:04:19.504Z,21.13
2018-09-01T01:05:19.516Z,21.13
2018-09-01T01:06:19.589Z,21.13
2018-09-01T01:07:19.263Z,21.13
2018-09-01T01:08:19.173Z,21.13
2018-09-01T01:09:19.241Z,21.13
2018-09-01T01:10:19.237Z,21.13
2018-09-01T01:11:19.812Z,21.13
2018-09-01T01:12:19.621Z,21.13
2018-09-01T01:13:19.298Z,21.13
2018-09-01T01:14:19.331Z,21.13
2018-09-01T01:15:19.271Z,21.13
2018-09-01T01:16:19.447Z,21.13
2018-09-01T01:17:19.569Z,21.13
2018-09-01T01:18:19.470Z,21.13
2018-09-01T01:19:19.323Z,21.13
2018-09-01T01:20:19.559Z,21.13
2018-09-01T01:21:19.375Z,21.13
2018-09-01T01:22:19.280Z,21.13
2018-09-01T01:23:19.508Z,21.13
2018-09-01T01:24:19.383Z,21.13
2018-09-01T01:25:19.632Z,21.12
2018-09-01T01:26:19.475Z,21.13
2018-09-01T01:27:19.638Z,21.13
2018-09-01T01:28:19.492Z,21.12
2018-09-01T01:29:19.240Z,21.13
2018-09-01T01:30:19.396Z,21.12
2018-09-01T01:31:19.367Z,21.12
2018-09-01T01:32:19.276Z,21.12
2018-09-01T01:33:19.291Z,21.12
2018-09-01T01:34:19.196Z,21.13
2018-09-01T01:35:19.371Z,21.13
2018-09-01T01:36:19.395Z,21.12
2018-09-01T01:37:19.456Z,21.12
2018-09-01T01:38:19.273Z,21.12
2018-09-01T01:39:19.287Z,21.12
2018-09-01T01:40:19.393Z,21.11
2018-09-01T01:41:19.322Z,21.11
2018-09-01T01:42:19.254Z,21.11
2018-09-01T01:43:19.305Z,21.12
2018-09-01T01:44:19.275Z,21.12
2018-09-01T01:45:19.526Z,21.11
2018-09-01T01:46:19.397Z,21.11
2018-09-01T01:47:19.384Z,21.12
2018-09-01T01:48:19.467Z,21.12
2018-09-01T01:49:19.250Z,21.12
2018-09-01T01:50:19.277Z,21.12
2018-09-01T01:51:19.454Z,21.12
2018-09-01T01:52:19.673Z,21.12
2018-09-01T01:53:19.609Z,21.12
2018-09-01T01:54:19.123Z,21.12
2018-09-01T01:55:19.360Z,21.12
2018-09-01T01:56:19.291Z,21.11
2018-09-01T01:57:19.270Z,21.11
2018-09-01T01:58:19.282Z,21.11
2018-09-01T01:59:19.254Z,21.11
2018-09-01T02:00:19.349Z,21.1
2018-09-01T02:01:19.448Z,21.11
2018-09-01T02:02:19.357Z,21.11
2018-09-01T02:03:19.373Z,21.11
2018-09-01T02:04:19.494Z,21.11
2018-09-01T02:05:19.518Z,21.11
2018-09-01T02:06:19.106Z,21.11
2018-09-01T02:07:19.239Z,21.1
2018-09-01T02:08:19.323Z,21.1
2018-09-01T02:09:19.582Z,21.11
2018-09-01T02:10:19.288Z,21.1
2018-09-01T02:11:19.295Z,21.1
2018-09-01T02:12:19.283Z,21.1
2018-09-01T02:13:19.367Z,21.1
2018-09-01T02:14:19.306Z,21.1
2018-09-01T02:15:19.399Z,21.1
2018-09-01T02:16:19.292Z,21.1
2018-09-01T02:17:19.446Z,21.1
2018-09-01T02:18:19.154Z,21.09
2018-09-01T02:19:19.327Z,21.1
2018-09-01T02:20:19.285Z,21.09
2018-09-01T02:21:19.504Z,21.1
2018-09-01T02:22:19.185Z,21.1
2018-09-01T02:23:19.212Z,21.1
2018-09-01T02:24:19.232Z,21.1
2018-09-01T02:25:20.078Z,21.1
2018-09-01T02:26:19.315Z,21.1
2018-09-01T02:27:19.418Z,21.1
2018-09-01T02:28:19.292Z,21.09
2018-09-01T02:29:19.404Z,21.09
2018-09-01T02:30:19.290Z,21.08
2018-09-01T02:31:19.220Z,21.09
2018-09-01T02:32:19.396Z,21.1
2018-09-01T02:33:19.378Z,21.09
2018-09-01T02:34:19.587Z,21.09
2018-09-01T02:35:19.451Z,21.09
2018-09-01T02:36:19.574Z,21.1
2018-09-01T02:37:19.312Z,21.09
2018-09-01T02:38:19.152Z,21.08
2018-09-01T02:39:19.353Z,21.08
2018-09-01T02:40:19.325Z,21.08
2018-09-01T02:41:19.366Z,21.08
2018-09-01T02:42:19.214Z,21.08
2018-09-01T02:43:19.255Z,21.07
2018-09-01T02:44:19.349Z,21.07
2018-09-01T02:45:19.147Z,21.08
2018-09-01T02:46:19.342Z,21.08
2018-09-01T02:47:19.220Z,21.08
2018-09-01T02:48:19.355Z,21.09
2018-09-01T02:49:19.162Z,21.08
2018-09-01T02:50:19.456Z,21.08
2018-09-01T02:51:19.268Z,21.08
2018-09-01T02:52:19.261Z,21.08
2018-09-01T02:53:19.545Z,21.08
2018-09-01T02:54:19.372Z,21.08
2018-09-01T02:55:19.587Z,21.08
2018-09-01T02:56:19.569Z,21.08
2018-09-01T02:57:19.409Z,21.08
2018-09-01T02:58:19.529Z,21.08
2018-09-01T02:59:19.611Z,21.08
2018-09-01T03:00:19.404Z,21.08
2018-09-01T03:01:19.597Z,21.07
2018-09-01T03:02:19.305Z,21.07
2018-09-01T03:03:19.392Z,21.07
2018-09-01T03:04:19.123Z,21.08
2018-09-01T03:05:19.403Z,21.08
2018-09-01T03:06:19.291Z,21.08
2018-09-01T03:07:19.378Z,21.08
2018-09-01T03:08:19.345Z,21.08
2018-09-01T03:09:19.248Z,21.08
2018-09-01T03:10:19.137Z,21.07
2018-09-01T03:11:19.269Z,21.08
2018-09-01T03:12:19.333Z,21.08
2018-09-01T03:13:19.078Z,21.07
2018-09-01T03:14:19.336Z,21.08
2018-09-01T03:15:19.330Z,21.07
2018-09-01T03:16:19.320Z,21.07
2018-09-01T03:17:19.235Z,21.07
2018-09-01T03:18:19.364Z,21.08
2018-09-01T03:19:19.274Z,21.07
2018-09-01T03:20:19.223Z,21.07
2018-09-01T03:21:19.324Z,21.07
2018-09-01T03:22:19.416Z,21.07
2018-09-01T03:23:19.431Z,21.07
2018-09-01T03:24:19.232Z,21.07
2018-09-01T03:25:19.335Z,21.07
2018-09-01T03:26:19.310Z,21.07
2018-09-01T03:27:19.405Z,21.07
2018-09-01T03:28:19.249Z,21.07
2018-09-01T03:29:19.384Z,21.07
2018-09-01T03:30:19.449Z,21.07
2018-09-01T03:31:19.576Z,21.07
2018-09-01T03:32:19.285Z,21.07
2018-09-01T03:33:19.092Z,21.07
2018-09-01T03:34:19.288Z,21.07
2018-09-01T03:35:19.241Z,21.07
2018-09-01T03:36:19.332Z,21.07
2018-09-01T03:37:19.590Z,21.07
2018-09-01T03:38:19.332Z,21.07
2018-09-01T03:39:19.482Z,21.07
2018-09-01T03:40:19.385Z,21.07
2018-09-01T03:41:19.208Z,21.07
2018-09-01T03:42:19.252Z,21.07
2018-09-01T03:43:19.252Z,21.06
2018-09-01T03:44:19.556Z,21.06
2018-09-01T03:45:19.745Z,21.06
2018-09-01T03:46:19.237Z,21.06
2018-09-01T03:47:19.610Z,21.06
2018-09-01T03:48:19.290Z,21.06
2018-09-01T03:49:19.210Z,21.06
2018-09-01T03:50:19.182Z,21.06
2018-09-01T03:51:19.200Z,21.06
2018-09-01T03:52:19.145Z,21.06
2018-09-01T03:53:19.148Z,21.06
2018-09-01T03:54:19.257Z,21.06
2018-09-01T03:55:19.292Z,21.06
2018-09-01T03:56:19.294Z,21.06
2018-09-01T03:57:19.402Z,21.06
2018-09-01T03:58:19.247Z,21.06
2018-09-01T03:59:19.191Z,21.06
2018-09-01T04:00:19.322Z,21.06
2018-09-01T04:01:19.251Z,21.06
2018-09-01T04:02:19.529Z,21.05
2018-09-01T04:03:19.312Z,21.06
2018-09-01T04:04:19.354Z,21.05
2018-09-01T04:05:19.371Z,21.05
2018-09-01T04:06:19.340Z,21.05
2018-09-01T04:07:19.427Z,21.06
2018-09-01T04:08:19.094Z,21.06
2018-09-01T04:09:19.212Z,21.06
2018-09-01T04:10:19.085Z,21.05
2018-09-01T04:11:19.359Z,21.05
2018-09-01T04:12:19.311Z,21.05
2018-09-01T04:13:19.502Z,21.05
2018-09-01T04:14:19.425Z,21.05
2018-09-01T04:15:19.418Z,21.05
2018-09-01T04:16:19.167Z,21.04
2018-09-01T04:17:19.120Z,21.05
2018-09-01T04:18:19.249Z,21.04
2018-09-01T04:19:19.281Z,21.05
2018-09-01T04:20:19.300Z,21.05
2018-09-01T04:21:19.315Z,21.04
2018-09-01T04:22:19.266Z,21.04
2018-09-01T04:23:19.238Z,21.05
2018-09-01T04:24:19.307Z,21.04
2018-09-01T04:25:19.236Z,21.04
2018-09-01T04:26:19.159Z,21.04
2018-09-01T04:27:19.581Z,21.04
2018-09-01T04:28:19.333Z,21.03
2018-09-01T04:29:19.201Z,21.04
2018-09-01T04:30:19.166Z,21.04
2018-09-01T04:31:19.329Z,21.03
2018-09-01T04:32:19.239Z,21.04
2018-09-01T04:33:19.345Z,21.04
2018-09-01T04:34:19.162Z,21.03
2018-09-01T04:35:19.257Z,21.03
2018-09-01T04:36:19.239Z,21.03
2018-09-01T04:37:19.232Z,21.03
2018-09-01T04:38:19.344Z,21.03
2018-09-01T04:39:19.199Z,21.03
2018-09-01T04:40:19.127Z,21.03
2018-09-01T04:41:19.167Z,21.02
2018-09-01T04:42:19.263Z,21.02
2018-09-01T04:43:19.249Z,21.02
2018-09-01T04:44:19.377Z,21.02
2018-09-01T04:45:19.353Z,21.03
2018-09-01T04:46:19.156Z,21.02
2018-09-01T04:47:19.434Z,21.03
2018-09-01T04:48:19.301Z,21.03
2018-09-01T04:49:19.193Z,21.02
2018-09-01T04:50:19.506Z,21.03
2018-09-01T04:51:19.316Z,21.02
2018-09-01T04:52:19.190Z,21.03
2018-09-01T04:53:19.239Z,21.02
2018-09-01T04:54:19.288Z,21.03
2018-09-01T04:55:19.622Z,21.02
2018-09-01T04:56:19.121Z,21.02
2018-09-01T04:57:19.210Z,21.02
2018-09-01T04:58:19.376Z,21.02
2018-09-01T04:59:19.338Z,21.02
2018-09-01T05:00:19.402Z,21.03
2018-09-01T05:01:19.738Z,21.02
2018-09-01T05:02:19.323Z,21.02
2018-09-01T05:03:19.196Z,21.03
2018-09-01T05:04:19.424Z,21.02
2018-09-01T05:05:19.568Z,21.02
2018-09-01T05:06:19.271Z,21.02
2018-09-01T05:07:19.463Z,21.02
2018-09-01T05:08:19.392Z,21.02
2018-09-01T05:09:19.635Z,21.02
2018-09-01T05:10:19.392Z,21.02
2018-09-01T05:11:19.249Z,21.02
2018-09-01T05:12:19.401Z,21.01
2018-09-01T05:13:19.396Z,21.01
2018-09-01T05:14:19.187Z,21.01
2018-09-01T05:15:19.399Z,21.01
2018-09-01T05:16:19.225Z,21.01
2018-09-01T05:17:19.275Z,21.01
2018-09-01T05:18:19.265Z,21.01
2018-09-01T05:19:19.223Z,21.01
2018-09-01T05:20:19.590Z,21.01
2018-09-01T05:21:19.167Z,21.01
2018-09-01T05:22:19.151Z,21.01
2018-09-01T05:23:19.368Z,21.01
2018-09-01T05:24:19.612Z,21.01
2018-09-01T05:25:19.381Z,21.01
2018-09-01T05:26:19.272Z,21.01
2018-09-01T05:27:19.296Z,21.01
2018-09-01T05:28:19.368Z,21.01
2018-09-01T05:29:19.385Z,21.01
2018-09-01T05:30:19.401Z,21.01
2018-09-01T05:31:19.440Z,21.01
2018-09-01T05:32:19.371Z,21.01
2018-09-01T05:33:19.358Z,21.01
2018-09-01T05:34:19.273Z,21.01
2018-09-01T05:35:19.578Z,21.01
2018-09-01T05:36:19.331Z,21
2018-09-01T05:37:19.318Z,21
2018-09-01T05:38:19.278Z,21
2018-09-01T05:39:19.156Z,21.01
2018-09-01T05:40:19.246Z,21
2018-09-01T05:41:19.410Z,21.01
2018-09-01T05:42:19.180Z,21.01
2018-09-01T05:43:19.231Z,21
2018-09-01T05:44:19.413Z,21.01
2018-09-01T05:45:19.247Z,21
2018-09-01T05:46:19.274Z,21
2018-09-01T05:47:19.107Z,21
2018-09-01T05:48:19.325Z,21.01
2018-09-01T05:49:19.241Z,21
2018-09-01T05:50:19.261Z,21
2018-09-01T05:51:19.261Z,21
2018-09-01T05:52:19.310Z,21.01
2018-09-01T05:53:19.360Z,21.01
2018-09-01T05:54:19.404Z,21
2018-09-01T05:55:19.254Z,21
2018-09-01T05:56:19.165Z,21
2018-09-01T05:57:19.160Z,21
2018-09-01T05:58:19.147Z,21
2018-09-01T05:59:19.297Z,21
2018-09-01T06:00:19.191Z,20.99
2018-09-01T06:01:19.289Z,20.98
2018-09-01T06:02:19.442Z,21
2018-09-01T06:03:19.325Z,20.99
2018-09-01T06:04:19.299Z,20.99
2018-09-01T06:05:19.203Z,20.99
2018-09-01T06:06:19.988Z,20.99
2018-09-01T06:07:19.255Z,21
2018-09-01T06:08:19.359Z,20.99
2018-09-01T06:09:19.543Z,20.99
2018-09-01T06:10:19.440Z,20.99
2018-09-01T06:11:19.817Z,20.99
2018-09-01T06:12:19.083Z,20.99
2018-09-01T06:13:19.725Z,20.83
2018-09-01T06:14:19.422Z,20.66
2018-09-01T06:15:19.226Z,20.48
2018-09-01T06:16:19.122Z,20.31
2018-09-01T06:17:19.375Z,20.18
2018-09-01T06:18:19.075Z,20
2018-09-01T06:19:20.092Z,19.84
2018-09-01T06:20:19.316Z,19.79
2018-09-01T06:21:19.283Z,19.72
2018-09-01T06:22:19.215Z,19.56
2018-09-01T06:23:19.176Z,19.51
2018-09-01T06:24:19.293Z,19.4
2018-09-01T06:25:19.293Z,19.39
2018-09-01T06:26:19.163Z,19.33
2018-09-01T06:27:19.213Z,19.29
2018-09-01T06:28:19.122Z,19.33
2018-09-01T06:29:19.332Z,19.36
2018-09-01T06:30:20.397Z,19.19
2018-09-01T06:31:19.187Z,19.15
2018-09-01T06:32:19.146Z,19.08
2018-09-01T06:33:19.153Z,19.1
2018-09-01T06:34:19.567Z,19.02
2018-09-01T06:35:19.358Z,19.01
2018-09-01T06:36:19.402Z,18.98
2018-09-01T06:37:19.399Z,18.97
2018-09-01T06:38:19.330Z,18.96
2018-09-01T06:39:19.205Z,18.92
2018-09-01T06:40:19.274Z,18.83
2018-09-01T06:41:19.183Z,18.85
2018-09-01T06:42:19.265Z,18.91
2018-09-01T06:43:19.239Z,18.97
2018-09-01T06:44:19.108Z,19.06
2018-09-01T06:45:19.261Z,19.13
2018-09-01T06:46:19.423Z,19.18
2018-09-01T06:47:19.169Z,19.23
2018-09-01T06:48:19.387Z,19.28
2018-09-01T06:49:19.327Z,19.33
2018-09-01T06:50:19.901Z,19.38
2018-09-01T06:51:19.483Z,19.41
2018-09-01T06:52:19.293Z,19.45
2018-09-01T06:53:19.545Z,19.49
2018-09-01T06:54:19.244Z,19.52
2018-09-01T06:55:19.187Z,19.56
2018-09-01T06:56:19.479Z,19.59
2018-09-01T06:57:19.516Z,19.63
2018-09-01T06:58:19.412Z,19.64
2018-09-01T06:59:19.182Z,19.68
2018-09-01T07:00:19.438Z,19.69
2018-09-01T07:01:19.210Z,19.72
2018-09-01T07:02:19.099Z,19.74
2018-09-01T07:03:19.338Z,19.76
2018-09-01T07:04:19.154Z,19.78
2018-09-01T07:05:19.269Z,19.81
2018-09-01T07:06:19.334Z,19.82
2018-09-01T07:07:19.182Z,19.84
2018-09-01T07:08:19.473Z,19.87
2018-09-01T07:09:19.193Z,19.88
2018-09-01T07:10:19.333Z,19.88
2018-09-01T07:11:19.224Z,19.89
2018-09-01T07:12:19.287Z,19.91
2018-09-01T07:13:19.066Z,19.93
2018-09-01T07:14:19.213Z,19.94
2018-09-01T07:15:19.328Z,19.95
2018-09-01T07:16:19.227Z,19.97
2018-09-01T07:17:19.284Z,19.98
2018-09-01T07:18:19.164Z,20
2018-09-01T07:19:19.295Z,20
2018-09-01T07:20:19.399Z,20
2018-09-01T07:21:19.366Z,20.02
2018-09-01T07:22:19.590Z,20.03
2018-09-01T07:23:19.168Z,20.04
2018-09-01T07:24:19.156Z,20.05
2018-09-01T07:25:19.378Z,20.06
2018-09-01T07:26:19.322Z,20.06
2018-09-01T07:27:19.240Z,20.07
2018-09-01T07:28:19.113Z,20.07
2018-09-01T07:29:19.235Z,20.08
2018-09-01T07:30:20.654Z,20.1
2018-09-01T07:31:23.517Z,20.1
2018-09-01T07:32:19.313Z,20.1
2018-09-01T07:33:19.146Z,20.12
2018-09-01T07:34:19.261Z,20.12
2018-09-01T07:35:19.486Z,20.12
2018-09-01T07:36:19.291Z,20.12
2018-09-01T07:37:19.325Z,20.13
2018-09-01T07:38:19.749Z,20.14
2018-09-01T07:39:19.140Z,20.14
2018-09-01T07:40:19.228Z,20.15
2018-09-01T07:41:19.367Z,20.16
2018-09-01T07:42:19.253Z,20.16
2018-09-01T07:43:19.276Z,20.17
2018-09-01T07:44:19.185Z,20.18
2018-09-01T07:45:19.482Z,20.18
2018-09-01T07:46:19.356Z,20.2
2018-09-01T07:47:19.171Z,20.2
2018-09-01T07:48:19.214Z,20.2
2018-09-01T07:49:19.280Z,20.2
2018-09-01T07:50:19.255Z,20.21
2018-09-01T07:51:19.293Z,20.2
2018-09-01T07:52:19.473Z,20.21
2018-09-01T07:53:19.062Z,20.22
2018-09-01T07:54:19.193Z,20.23
2018-09-01T07:55:19.291Z,20.24
2018-09-01T07:56:20.658Z,20.24
2018-09-01T07:57:19.374Z,20.24
2018-09-01T07:58:19.325Z,20.25
2018-09-01T07:59:19.301Z,20.24
2018-09-01T08:00:19.314Z,20.25
2018-09-01T08:01:19.480Z,20.26
2018-09-01T08:02:19.344Z,20.27
2018-09-01T08:03:19.283Z,20.27
2018-09-01T08:04:19.334Z,20.28
2018-09-01T08:05:19.404Z,20.28
2018-09-01T08:06:19.671Z,20.27
2018-09-01T08:07:19.639Z,20.28
2018-09-01T08:08:19.265Z,20.29
2018-09-01T08:09:19.257Z,20.3
2018-09-01T08:10:19.364Z,20.3
2018-09-01T08:11:19.352Z,20.29
2018-09-01T08:12:19.410Z,20.3
2018-09-01T08:13:19.238Z,20.31
2018-09-01T08:14:20.413Z,20.31
2018-09-01T08:15:19.222Z,20.31
2018-09-01T08:16:19.481Z,20.32
2018-09-01T08:17:19.099Z,20.32
2018-09-01T08:18:19.096Z,20.33
2018-09-01T08:19:19.371Z,20.33
2018-09-01T08:20:19.215Z,20.33
2018-09-01T08:21:19.360Z,20.34
2018-09-01T08:22:19.328Z,20.35
2018-09-01T08:23:19.063Z,20.35
2018-09-01T08:24:19.255Z,20.35
2018-09-01T08:25:19.438Z,20.35
2018-09-01T08:26:19.286Z,20.35
2018-09-01T08:27:19.201Z,20.35
2018-09-01T08:28:19.077Z,20.36
2018-09-01T08:29:19.109Z,20.35
2018-09-01T08:30:19.237Z,20.36
2018-09-01T08:31:19.534Z,20.36
2018-09-01T08:32:19.207Z,20.37
2018-09-01T08:33:19.064Z,20.37
2018-09-01T08:34:19.254Z,20.37
2018-09-01T08:35:19.254Z,20.39
2018-09-01T08:36:19.122Z,20.39
2018-09-01T08:37:19.358Z,20.38
2018-09-01T08:38:19.195Z,20.4
2018-09-01T08:39:19.430Z,20.4
2018-09-01T08:40:19.647Z,20.4
2018-09-01T08:41:19.305Z,20.4
2018-09-01T08:42:19.251Z,20.4
2018-09-01T08:43:19.769Z,20.4
2018-09-01T08:44:19.645Z,20.41
2018-09-01T08:45:19.754Z,20.41
2018-09-01T08:46:18.992Z,20.41
2018-09-01T08:47:19.188Z,20.41
2018-09-01T08:48:19.284Z,20.42
2018-09-01T08:49:19.386Z,20.42
2018-09-01T08:50:19.049Z,20.43
2018-09-01T08:51:19.329Z,20.43
2018-09-01T08:52:19.302Z,20.43
2018-09-01T08:53:19.347Z,20.44
2018-09-01T08:54:19.208Z,20.44
2018-09-01T08:55:19.361Z,20.44
2018-09-01T08:56:19.132Z,20.44
2018-09-01T08:57:19.349Z,20.45
2018-09-01T08:58:19.085Z,20.45
2018-09-01T08:59:19.214Z,20.45
2018-09-01T09:00:19.346Z,20.44
2018-09-01T09:01:19.244Z,20.45
2018-09-01T09:02:19.438Z,20.45
2018-09-01T09:03:19.191Z,20.46
2018-09-01T09:04:19.420Z,20.46
2018-09-01T09:05:19.455Z,20.45
2018-09-01T09:06:19.349Z,20.46
2018-09-01T09:07:19.245Z,20.46
2018-09-01T09:08:19.224Z,20.46
2018-09-01T09:09:19.235Z,20.46
2018-09-01T09:10:19.399Z,20.47
2018-09-01T09:11:19.333Z,20.47
2018-09-01T09:12:19.572Z,20.47
2018-09-01T09:13:19.210Z,20.47
2018-09-01T09:14:19.320Z,20.46
2018-09-01T09:15:19.231Z,20.47
2018-09-01T09:16:19.264Z,20.46
2018-09-01T09:17:19.247Z,20.47
2018-09-01T09:18:19.323Z,20.47
2018-09-01T09:19:19.105Z,20.47
2018-09-01T09:20:19.252Z,20.47
2018-09-01T09:21:19.305Z,20.47
2018-09-01T09:22:19.687Z,20.48
2018-09-01T09:23:19.128Z,20.48
2018-09-01T09:24:19.530Z,20.47
2018-09-01T09:25:19.160Z,20.47
2018-09-01T09:26:19.301Z,20.48
2018-09-01T09:27:19.254Z,20.48
2018-09-01T09:28:19.391Z,20.48
2018-09-01T09:29:19.292Z,20.49
2018-09-01T09:30:19.120Z,20.49
2018-09-01T09:31:19.143Z,20.49
2018-09-01T09:32:19.407Z,20.49
2018-09-01T09:33:19.123Z,20.48
2018-09-01T09:34:19.644Z,20.48
2018-09-01T09:35:19.438Z,20.48
2018-09-01T09:36:19.284Z,20.47
2018-09-01T09:37:19.134Z,20.46
2018-09-01T09:38:19.459Z,20.44
2018-09-01T09:39:19.087Z,20.41
2018-09-01T09:40:19.258Z,20.41
2018-09-01T09:41:19.170Z,20.41
2018-09-01T09:42:19.417Z,20.41
2018-09-01T09:43:19.108Z,20.44
2018-09-01T09:44:19.108Z,20.45
2018-09-01T09:45:19.157Z,20.43
2018-09-01T09:46:19.279Z,20.41
2018-09-01T09:47:19.163Z,20.42
2018-09-01T09:48:19.217Z,20.44
2018-09-01T09:49:19.148Z,20.43
2018-09-01T09:50:19.184Z,20.43
2018-09-01T09:51:19.114Z,20.46
2018-09-01T09:52:19.272Z,20.44
2018-09-01T09:53:19.240Z,20.47
2018-09-01T09:54:19.286Z,20.47
2018-09-01T09:55:19.266Z,20.45
2018-09-01T09:56:19.209Z,20.52
2018-09-01T10:02:03.691Z,20.95
2018-09-01T10:09:57.669Z,20.57
2018-09-01T10:10:57.944Z,20.63
2018-09-01T10:11:57.669Z,20.61
2018-09-01T10:12:57.627Z,20.57
2018-09-01T10:13:58.083Z,20.55
2018-09-01T10:14:58.140Z,20.54
2018-09-01T10:15:58.625Z,20.53
2018-09-01T10:16:57.605Z,20.52
2018-09-01T10:17:57.506Z,20.53
2018-09-01T10:18:58.216Z,20.75
2018-09-01T10:19:58.035Z,20.69
2018-09-01T10:21:10.211Z,20.69
2018-09-01T10:22:10.136Z,20.63
2018-09-01T10:23:10.421Z,20.65
2018-09-01T10:24:10.178Z,20.61
2018-09-01T10:25:10.178Z,20.59
2018-09-01T10:26:10.460Z,20.6
2018-09-01T10:27:10.807Z,20.6
2018-09-01T10:28:10.505Z,20.62
2018-09-01T10:29:10.315Z,20.63
2018-09-01T10:30:10.350Z,20.64
2018-09-01T10:31:10.345Z,20.65
2018-09-01T10:32:10.204Z,20.65
2018-09-01T10:33:10.417Z,20.66
2018-09-01T10:34:10.404Z,20.67
2018-09-01T10:35:10.411Z,20.67
2018-09-01T10:36:10.272Z,20.69
2018-09-01T10:37:10.210Z,20.69
2018-09-01T10:38:10.262Z,20.7
2018-09-01T10:39:10.279Z,20.71
2018-09-01T10:40:10.527Z,20.71
2018-09-01T10:41:10.303Z,20.71
2018-09-01T10:42:10.369Z,20.74
2018-09-01T10:43:10.445Z,20.76
2018-09-01T10:44:10.442Z,20.76
2018-09-01T10:45:10.167Z,20.77
2018-09-01T10:46:10.636Z,20.77
2018-09-01T10:47:10.459Z,20.79
2018-09-01T10:48:10.413Z,20.79
2018-09-01T10:49:10.175Z,20.77
2018-09-01T10:50:10.531Z,20.77
2018-09-01T10:51:10.592Z,20.77
2018-09-01T10:52:10.622Z,20.8
2018-09-01T10:53:10.799Z,20.82
2018-09-01T10:54:10.459Z,20.83
2018-09-01T10:55:10.413Z,20.83
2018-09-01T10:56:10.313Z,20.84
2018-09-01T10:57:10.287Z,20.86
2018-09-01T10:58:10.354Z,20.88
2018-09-01T10:59:12.086Z,20.89
2018-09-01T11:00:10.299Z,20.89
2018-09-01T11:01:10.264Z,20.9
2018-09-01T11:02:10.260Z,20.92
2018-09-01T11:03:10.317Z,20.91
2018-09-01T11:04:10.310Z,20.93
2018-09-01T11:05:10.646Z,20.94
2018-09-01T11:06:10.309Z,20.95
2018-09-01T11:07:10.393Z,20.95
2018-09-01T11:08:10.455Z,20.95
2018-09-01T11:09:10.439Z,20.96
2018-09-01T11:10:10.710Z,20.97
2018-09-01T11:11:10.470Z,20.97
2018-09-01T11:12:10.562Z,20.97
2018-09-01T11:13:10.271Z,20.94
2018-09-01T11:14:10.982Z,20.95
2018-09-01T11:15:11.061Z,20.91
2018-09-01T11:16:10.399Z,20.95
2018-09-01T11:17:10.991Z,20.98
2018-09-01T11:18:10.372Z,20.98
2018-09-01T11:19:10.627Z,20.98
2018-09-01T11:20:10.848Z,21
2018-09-01T11:21:10.422Z,21.01
2018-09-01T11:22:10.642Z,21.02
2018-09-01T11:23:10.545Z,21.02
2018-09-01T11:24:10.508Z,21.03
2018-09-01T11:25:10.579Z,21.03
2018-09-01T11:26:10.415Z,21.02
2018-09-01T11:27:10.422Z,21.03
2018-09-01T11:28:11.183Z,21.06
2018-09-01T11:29:10.415Z,21.08
2018-09-01T11:30:10.304Z,21.07
2018-09-01T11:31:10.620Z,21.06
2018-09-01T11:32:10.488Z,21.02
2018-09-01T11:33:10.479Z,21.02
2018-09-01T11:34:10.576Z,21.03
2018-09-01T11:35:10.273Z,21.05
2018-09-01T11:36:10.921Z,21.07
2018-09-01T11:37:10.246Z,21.06
2018-09-01T11:38:10.459Z,21.07
2018-09-01T11:39:10.490Z,21.07
2018-09-01T11:40:10.405Z,21.06
2018-09-01T11:41:10.297Z,21.07
2018-09-01T11:42:10.338Z,21.06
2018-09-01T11:43:12.213Z,21.01
2018-09-01T11:44:10.375Z,21.01
2018-09-01T11:45:10.337Z,21.02
2018-09-01T11:46:10.197Z,21.01
2018-09-01T11:47:10.093Z,21.01
2018-09-01T11:48:10.383Z,21.01
2018-09-01T11:49:10.683Z,21.01
2018-09-01T11:50:10.703Z,21.02
2018-09-01T11:51:10.484Z,21.03
2018-09-01T11:52:10.600Z,21.02
2018-09-01T11:53:10.677Z,21.02
2018-09-01T11:54:10.479Z,21.02
2018-09-01T11:55:10.205Z,21.01
2018-09-01T11:56:10.248Z,21.01
2018-09-01T11:57:10.168Z,21.01
2018-09-01T11:58:10.321Z,21.02
2018-09-01T11:59:10.253Z,21.02
2018-09-01T12:00:10.463Z,21.02
2018-09-01T12:01:10.336Z,21.01
2018-09-01T12:02:10.707Z,20.99
2018-09-01T12:03:10.312Z,20.97
2018-09-01T12:04:10.528Z,20.96
2018-09-01T12:05:10.312Z,20.96
2018-09-01T12:06:10.398Z,20.95
2018-09-01T12:07:10.408Z,20.94
2018-09-01T12:08:10.293Z,20.93
2018-09-01T12:09:11.542Z,20.94
2018-09-01T12:10:10.340Z,20.93
2018-09-01T12:11:10.359Z,20.93
2018-09-01T12:12:10.493Z,20.93
2018-09-01T12:13:10.409Z,20.92
2018-09-01T12:14:10.339Z,20.91
2018-09-01T12:15:10.473Z,20.91
2018-09-01T12:16:10.195Z,20.9
2018-09-01T12:17:10.431Z,20.9
2018-09-01T12:18:10.421Z,20.91
2018-09-01T12:19:10.800Z,20.9
2018-09-01T12:20:10.399Z,20.89
2018-09-01T12:21:10.306Z,20.9
2018-09-01T12:22:10.610Z,20.89
2018-09-01T12:23:10.326Z,20.89
2018-09-01T12:24:10.247Z,20.89
2018-09-01T12:25:10.297Z,20.89
2018-09-01T12:26:10.511Z,20.89
2018-09-01T12:27:10.463Z,20.89
2018-09-01T12:28:10.545Z,20.89
2018-09-01T12:29:10.308Z,20.91
2018-09-01T12:30:10.485Z,20.92
2018-09-01T12:31:10.276Z,20.94
2018-09-01T12:32:10.335Z,20.96
2018-09-01T12:33:10.195Z,20.98
2018-09-01T12:34:10.423Z,21.01
2018-09-01T12:35:10.686Z,21.03
2018-09-01T12:36:10.378Z,21.04
2018-09-01T12:37:10.176Z,21.04
2018-09-01T12:38:10.303Z,21.04
2018-09-01T12:39:10.403Z,21.07
2018-09-01T12:40:10.479Z,21.07
2018-09-01T12:41:10.714Z,21.09
2018-09-01T12:42:11.266Z,21.11
2018-09-01T12:43:10.214Z,21.13
2018-09-01T12:44:10.196Z,21.15
2018-09-01T12:45:10.356Z,21.14
2018-09-01T12:46:10.502Z,21.16
2018-09-01T12:47:10.144Z,21.14
2018-09-01T12:48:10.620Z,21.14
2018-09-01T12:49:10.188Z,21.16
2018-09-01T12:50:10.354Z,21.18
2018-09-01T12:51:10.266Z,21.19
2018-09-01T12:52:10.399Z,21.21
2018-09-01T12:53:11.141Z,21.23
2018-09-01T12:54:10.329Z,21.23
2018-09-01T12:55:10.214Z,21.23
2018-09-01T12:56:10.261Z,21.24
2018-09-01T12:57:10.469Z,21.24
2018-09-01T12:58:10.350Z,21.27
2018-09-01T12:59:10.454Z,21.22
2018-09-01T13:00:10.353Z,21.22
2018-09-01T13:01:10.335Z,21.24
2018-09-01T13:02:10.179Z,21.24
2018-09-01T13:03:10.225Z,21.26
2018-09-01T13:04:10.849Z,21.25
2018-09-01T13:05:10.361Z,21.27
2018-09-01T13:06:10.537Z,21.27
2018-09-01T13:07:10.485Z,21.29
2018-09-01T13:08:10.617Z,21.3